KILN/ILN METAR and TAF weather

Enter ICAO airport designator
Station Type Date Time Source
KILN METAR 2022/05/23 14:14 UTC NOAA

KILN 231414Z AUTO 04010KT 10SM BKN022 BKN075 12/07 A3028 RMK AO2 T01220067


Station Type Date Time Source
KILN Decoded METAR 2022/05/23 14:14 UTC NOAA

WILMINGTON INDUSTRIAL AIRPORT , OH, United States (KILN) 39-26N 083-47W 332M
May 23, 2022 - 10:14 AM EDT / 2022.05.23 1414 UTC
Wind: from the NE (040 degrees) at 12 MPH (10 KT):0
Visibility: 10 mile(s):0
Sky conditions: mostly cloudy
Temperature: 54.0 F (12.2 C)
Dew Point: 44.1 F (6.7 C)
Relative Humidity: 69%
Pressure (altimeter): 30.28 in. Hg (1025 hPa)
ob: KILN 231414Z AUTO 04010KT 10SM BKN022 BKN075 12/07 A3028 RMK AO2 T01220067
cycle: 14

Station Type Date Time Source
KILN TAF 2022/05/23 12:33 UTC NOAA

TAF KILN 231131Z 2312/2412 01010KT P6SM BKN100
FM231400 05010KT P6SM FEW050 BKN100
FM240000 05008KT P6SM SCT080

Example: see airport list